Terminal Aerodrome Forecast
Issued by NWS

Home | Current Version | Previous Version | Graphics & Text | Print | Product List | Glossary On
Versions: 1 2 3 4 5 6 7 8 9 10 11 12 13 14 15 16 17 18
000
FTUS43 KBIS 241738
TAFDIK
TAF
KDIK 241738Z 2418/2518 29022G33KT P6SM OVC040
     FM250200 31014G23KT P6SM BKN050
     FM250600 30009KT P6SM BKN050
     FM250900 29007KT P6SM FEW070=

USA.gov is the U.S. government's official web portal to all federal, state and local government web resources and services.